createdAt,value
2022-10-24T00:01:35.234Z,0.50
2022-10-24T00:04:02.174Z,1.00
2022-10-24T00:06:29.038Z,1.00
2022-10-24T00:08:55.849Z,0.65
2022-10-24T00:11:27.335Z,0.73
2022-10-24T00:16:25.555Z,0.70
2022-10-24T00:18:54.969Z,0.63
2022-10-24T00:21:22.691Z,0.80
2022-10-24T00:23:49.589Z,0.60
2022-10-24T00:26:19.047Z,0.73
2022-10-24T00:28:46.720Z,0.80
2022-10-24T00:31:18.418Z,0.80
2022-10-24T00:33:48.053Z,0.93
2022-10-24T00:36:18.951Z,0.80
2022-10-24T00:38:45.937Z,0.77
2022-10-24T00:41:20.105Z,1.20
2022-10-24T00:43:47.532Z,1.13
2022-10-24T00:46:16.986Z,1.10
2022-10-24T00:48:55.162Z,0.85
2022-10-24T00:51:28.722Z,1.10
2022-10-24T00:54:05.193Z,0.82
2022-10-24T00:56:41.140Z,0.90
2022-10-24T00:59:10.808Z,0.80
2022-10-24T01:01:41.817Z,1.00
2022-10-24T01:04:13.463Z,0.98
2022-10-24T01:07:04.534Z,0.93
2022-10-24T01:09:46.592Z,1.30
2022-10-24T01:12:54.135Z,1.10
2022-10-24T01:15:33.991Z,0.80
2022-10-24T01:18:23.190Z,1.70
2022-10-24T01:21:13.179Z,0.90
2022-10-24T01:24:00.191Z,1.00
2022-10-24T01:26:56.698Z,1.10
2022-10-24T01:29:26.134Z,0.90
2022-10-24T01:32:08.305Z,1.00
2022-10-24T01:34:51.015Z,1.10
2022-10-24T01:37:39.857Z,0.98
2022-10-24T01:40:15.633Z,0.93
2022-10-24T01:42:45.216Z,1.00
2022-10-24T01:45:18.945Z,1.05
2022-10-24T01:47:53.407Z,0.85
2022-10-24T01:50:24.087Z,1.10
2022-10-24T01:52:52.937Z,1.13
2022-10-24T01:55:20.007Z,1.00
2022-10-24T01:57:46.929Z,1.10
2022-10-24T02:00:22.529Z,1.10
2022-10-24T02:03:16.389Z,1.00
2022-10-24T02:05:50.843Z,1.00
2022-10-24T02:08:28.077Z,1.27
2022-10-24T02:11:02.629Z,1.10
2022-10-24T02:14:06.435Z,1.08
2022-10-24T02:16:35.063Z,1.15
2022-10-24T02:19:02.310Z,0.88
2022-10-24T02:21:38.344Z,1.30
2022-10-24T02:24:24.284Z,1.52
2022-10-24T02:27:13.389Z,1.50
2022-10-24T02:30:00.672Z,1.42
2022-10-24T02:32:36.007Z,1.25
2022-10-24T02:35:07.744Z,1.50
2022-10-24T02:37:41.388Z,1.45
2022-10-24T02:40:10.689Z,1.20
2022-10-24T02:42:39.623Z,2.58
2022-10-24T02:45:10.976Z,1.30
2022-10-24T02:47:43.617Z,1.95
2022-10-24T02:50:11.459Z,1.27
2022-10-24T02:52:42.013Z,1.70
2022-10-24T02:55:10.084Z,1.43
2022-10-24T02:57:37.080Z,1.20
2022-10-24T03:00:06.454Z,1.45
2022-10-24T03:02:35.958Z,1.25
2022-10-24T03:05:03.130Z,1.38
2022-10-24T03:10:00.134Z,1.50
2022-10-24T03:12:27.068Z,1.52
2022-10-24T03:14:56.442Z,2.55
2022-10-24T03:17:23.427Z,1.38
2022-10-24T03:19:52.851Z,1.30
2022-10-24T03:22:19.692Z,1.70
2022-10-24T03:24:55.913Z,1.77
2022-10-24T03:27:26.161Z,1.13
2022-10-24T03:29:53.214Z,1.38
2022-10-24T03:32:20.522Z,1.30
2022-10-24T03:34:47.405Z,1.20
2022-10-24T03:37:16.318Z,1.27
2022-10-24T03:39:45.875Z,1.50
2022-10-24T03:42:13.113Z,1.20
2022-10-24T03:44:42.322Z,1.25
2022-10-24T03:47:09.466Z,1.40
2022-10-24T03:49:38.441Z,1.17
2022-10-24T03:52:08.065Z,1.10
2022-10-24T03:54:35.576Z,1.30
2022-10-24T03:57:06.079Z,1.60
2022-10-24T03:59:32.903Z,1.58
2022-10-24T04:02:01.383Z,1.85
2022-10-24T04:04:29.052Z,1.50
2022-10-24T04:06:56.056Z,1.50
2022-10-24T04:09:26.641Z,1.27
2022-10-24T04:11:53.942Z,1.60
2022-10-24T04:14:21.498Z,1.75
2022-10-24T04:16:48.704Z,1.20
2022-10-24T04:19:17.947Z,1.20
2022-10-24T04:21:46.942Z,1.60
2022-10-24T04:24:18.821Z,0.98
2022-10-24T04:26:48.709Z,1.13
2022-10-24T04:29:15.748Z,1.20
2022-10-24T04:31:47.300Z,1.30
2022-10-24T04:36:43.239Z,0.80
2022-10-24T04:39:10.124Z,1.50
2022-10-24T04:41:37.188Z,1.35
2022-10-24T04:44:04.202Z,1.15
2022-10-24T04:46:31.073Z,1.05
2022-10-24T04:49:00.377Z,1.23
2022-10-24T04:51:29.511Z,1.10
2022-10-24T04:53:56.468Z,1.10
2022-10-24T04:56:25.845Z,1.00
2022-10-24T04:58:53.015Z,1.25
2022-10-24T05:01:22.163Z,1.38
2022-10-24T05:03:49.075Z,1.48
2022-10-24T05:06:15.945Z,1.30
2022-10-24T05:08:42.880Z,1.50
2022-10-24T05:11:12.351Z,1.17
2022-10-24T05:13:39.589Z,1.38
2022-10-24T05:16:07.162Z,1.40
2022-10-24T05:18:34.155Z,1.65
2022-10-24T05:21:01.139Z,1.20
2022-10-24T05:23:30.356Z,1.15
2022-10-24T05:25:57.229Z,1.25
2022-10-24T05:28:25.050Z,1.17
2022-10-24T05:30:51.856Z,1.40
2022-10-24T05:33:18.723Z,1.90
2022-10-24T05:35:45.586Z,1.52
2022-10-24T05:38:12.437Z,1.17
2022-10-24T05:40:41.526Z,1.58
2022-10-24T05:43:09.027Z,1.70
2022-10-24T05:45:38.406Z,1.55
2022-10-24T05:48:05.940Z,1.65
2022-10-24T05:50:35.318Z,1.58
2022-10-24T05:53:05.282Z,1.48
2022-10-24T05:55:33.596Z,1.98
2022-10-24T05:58:00.445Z,1.10
2022-10-24T06:00:29.905Z,1.60
2022-10-24T06:02:56.755Z,1.20
2022-10-24T06:05:23.666Z,1.17
2022-10-24T06:07:50.512Z,1.77
2022-10-24T06:10:18.072Z,1.95
2022-10-24T06:12:45.246Z,1.80
2022-10-24T06:15:13.516Z,1.13
2022-10-24T06:17:40.362Z,1.50
2022-10-24T06:20:08.211Z,1.70
2022-10-24T06:22:38.357Z,2.20
2022-10-24T06:25:06.041Z,1.45
2022-10-24T06:27:33.064Z,1.70
2022-10-24T06:30:00.129Z,1.40
2022-10-24T06:32:27.121Z,1.08
2022-10-24T06:34:56.227Z,1.17
2022-10-24T06:37:23.368Z,1.58
2022-10-24T06:39:50.429Z,1.38
2022-10-24T06:42:19.867Z,1.65
2022-10-24T06:44:46.916Z,1.30
2022-10-24T06:47:16.124Z,1.38
2022-10-24T06:49:43.153Z,1.30
2022-10-24T06:52:10.024Z,1.60
2022-10-24T06:54:39.254Z,1.25
2022-10-24T06:57:08.423Z,1.20
2022-10-24T06:59:35.394Z,1.20
2022-10-24T07:02:05.123Z,1.20
2022-10-24T07:04:33.109Z,1.42
2022-10-24T07:07:02.473Z,1.30
2022-10-24T07:09:29.387Z,1.58
2022-10-24T07:11:59.466Z,1.67
2022-10-24T07:14:26.635Z,2.38
2022-10-24T07:16:53.817Z,1.90
2022-10-24T07:19:20.663Z,1.50
2022-10-24T07:21:47.546Z,1.30
2022-10-24T07:24:16.608Z,1.30
2022-10-24T07:26:43.577Z,1.63
2022-10-24T07:29:11.965Z,0.90
2022-10-24T07:31:40.117Z,1.00
2022-10-24T07:34:11.676Z,0.90
2022-10-24T07:39:14.001Z,0.95
2022-10-24T07:41:42.247Z,0.80
2022-10-24T07:44:12.435Z,1.08
2022-10-24T07:46:41.852Z,1.00
2022-10-24T07:49:13.845Z,1.40
2022-10-24T07:51:46.916Z,0.93
2022-10-24T07:54:16.027Z,1.00
2022-10-24T07:56:45.941Z,1.02
2022-10-24T07:59:29.991Z,1.15
2022-10-24T08:01:59.715Z,1.15
2022-10-24T08:04:33.832Z,0.95
2022-10-24T08:07:00.722Z,1.88
2022-10-24T08:09:27.767Z,2.00
2022-10-24T08:11:54.706Z,1.45
2022-10-24T08:14:24.162Z,1.23
2022-10-24T08:16:51.009Z,1.35
2022-10-24T08:19:20.320Z,1.20
2022-10-24T08:21:52.824Z,0.98
2022-10-24T08:24:19.798Z,1.00
2022-10-24T08:26:47.246Z,1.20
2022-10-24T08:29:15.529Z,1.75
2022-10-24T08:31:48.697Z,1.40
2022-10-24T08:34:18.274Z,1.33
2022-10-24T08:36:48.264Z,1.40
2022-10-24T08:39:18.374Z,1.50
2022-10-24T08:41:59.256Z,1.67
2022-10-24T08:44:34.408Z,1.40
2022-10-24T08:50:29.185Z,1.25
2022-10-24T08:53:09.449Z,1.70
2022-10-24T08:55:53.470Z,2.60
2022-10-24T08:58:52.008Z,1.15
2022-10-24T09:01:51.685Z,1.45
2022-10-24T09:04:23.451Z,1.33
2022-10-24T09:06:54.821Z,1.10
2022-10-24T09:09:31.616Z,0.90
2022-10-24T09:12:17.104Z,1.00
2022-10-24T09:14:48.812Z,1.20
2022-10-24T09:17:35.023Z,2.13
2022-10-24T09:20:29.339Z,1.77
2022-10-24T09:23:01.653Z,1.20
2022-10-24T09:25:37.130Z,0.90
2022-10-24T09:28:06.036Z,1.17
2022-10-24T09:30:37.490Z,1.05
2022-10-24T09:35:59.695Z,0.95
2022-10-24T09:38:36.596Z,0.90
2022-10-24T09:41:25.599Z,1.10
2022-10-24T09:43:58.933Z,1.00
2022-10-24T09:46:47.961Z,0.88
2022-10-24T09:49:24.963Z,0.90
2022-10-24T09:52:21.794Z,0.85
2022-10-24T09:55:17.163Z,1.17
2022-10-24T09:57:45.281Z,0.93
2022-10-24T10:00:32.752Z,0.82
2022-10-24T10:03:23.774Z,1.10
2022-10-24T10:05:54.448Z,0.90
2022-10-24T10:08:28.337Z,0.75
2022-10-24T10:11:12.374Z,0.80
2022-10-24T10:13:53.409Z,0.70
2022-10-24T10:16:35.672Z,0.68
2022-10-24T10:19:18.885Z,0.60
2022-10-24T10:22:03.587Z,0.70
2022-10-24T10:24:39.974Z,0.55
2022-10-24T10:27:35.115Z,0.80
2022-10-24T10:30:16.790Z,0.80
2022-10-24T10:32:51.841Z,0.70
2022-10-24T10:35:53.776Z,0.80
2022-10-24T10:38:48.966Z,1.15
2022-10-24T10:41:39.282Z,1.02
2022-10-24T10:44:33.925Z,1.20
2022-10-24T10:47:23.810Z,1.80
2022-10-24T10:49:58.126Z,2.17
2022-10-24T10:52:34.132Z,1.38
2022-10-24T10:55:47.674Z,1.10
2022-10-24T10:58:30.664Z,1.63
2022-10-24T11:01:16.270Z,1.10
2022-10-24T11:03:58.453Z,0.90
2022-10-24T11:06:52.134Z,0.70
2022-10-24T11:09:34.251Z,0.80
2022-10-24T11:12:24.548Z,1.17
2022-10-24T11:15:03.446Z,1.08
2022-10-24T11:18:19.822Z,0.82
2022-10-24T11:21:04.249Z,0.95
2022-10-24T11:24:00.722Z,0.80
2022-10-24T11:26:42.178Z,0.98
2022-10-24T11:29:43.576Z,1.02
2022-10-24T11:32:22.200Z,1.08
2022-10-24T11:34:55.440Z,1.10
2022-10-24T11:37:32.921Z,1.75
2022-10-24T11:40:13.346Z,1.10
2022-10-24T11:42:52.725Z,0.95
2022-10-24T11:45:23.181Z,1.20
2022-10-24T11:48:18.174Z,1.10
2022-10-24T11:51:20.289Z,1.20
2022-10-24T11:53:55.811Z,1.40
2022-10-24T11:56:47.024Z,1.23
2022-10-24T11:59:22.334Z,1.70
2022-10-24T12:01:55.416Z,1.60
2022-10-24T12:04:51.549Z,1.50
2022-10-24T12:07:55.864Z,1.48
2022-10-24T12:10:28.570Z,1.48
2022-10-24T12:13:32.848Z,2.15
2022-10-24T12:16:17.437Z,1.25
2022-10-24T12:19:00.961Z,1.30
2022-10-24T12:21:40.783Z,1.30
2022-10-24T12:24:27.600Z,1.17
2022-10-24T12:27:19.065Z,1.08
2022-10-24T12:30:20.316Z,1.27
2022-10-24T12:33:11.021Z,1.70
2022-10-24T12:35:50.355Z,1.30
2022-10-24T12:38:27.389Z,1.10
2022-10-24T12:41:35.273Z,1.67
2022-10-24T12:44:32.944Z,1.40
2022-10-24T12:47:25.244Z,1.45
2022-10-24T12:49:54.882Z,1.30
2022-10-24T12:52:30.873Z,1.27
2022-10-24T12:54:59.112Z,1.00
2022-10-24T12:57:37.830Z,0.93
2022-10-24T13:00:25.734Z,0.80
2022-10-24T13:03:30.612Z,0.70
2022-10-24T13:06:12.297Z,1.02
2022-10-24T13:09:04.766Z,0.80
2022-10-24T13:12:14.550Z,0.88
2022-10-24T13:14:53.751Z,0.70
2022-10-24T13:17:36.636Z,1.35
2022-10-24T13:20:18.127Z,0.85
2022-10-24T13:22:46.223Z,0.93
2022-10-24T13:25:35.488Z,1.08
2022-10-24T13:28:20.777Z,0.95
2022-10-24T13:30:49.897Z,1.30
2022-10-24T13:33:32.174Z,1.40
2022-10-24T13:36:23.194Z,1.25
2022-10-24T13:39:02.015Z,1.00
2022-10-24T13:41:37.530Z,1.05
2022-10-24T13:44:46.207Z,1.00
2022-10-24T13:47:26.126Z,1.20
2022-10-24T13:50:05.564Z,1.45
2022-10-24T13:53:12.520Z,1.25
2022-10-24T13:55:47.928Z,1.40
2022-10-24T13:58:24.580Z,1.60
2022-10-24T14:00:58.973Z,1.80
2022-10-24T14:03:29.552Z,1.00
2022-10-24T14:06:05.652Z,1.00
2022-10-24T14:08:37.874Z,1.00
2022-10-24T14:11:08.931Z,0.80
2022-10-24T14:13:55.470Z,0.85
2022-10-24T14:16:31.561Z,1.05
2022-10-24T14:19:31.802Z,1.25
2022-10-24T14:22:00.100Z,0.80
2022-10-24T14:24:26.949Z,1.05
2022-10-24T14:26:56.794Z,1.52
2022-10-24T14:29:32.465Z,1.17
2022-10-24T14:32:07.856Z,1.10
2022-10-24T14:34:41.619Z,1.17
2022-10-24T14:37:22.409Z,1.05
2022-10-24T14:39:49.458Z,1.20
2022-10-24T14:42:18.446Z,1.10
2022-10-24T14:44:46.884Z,2.03
2022-10-24T14:47:39.049Z,1.00
2022-10-24T14:50:39.758Z,0.95
2022-10-24T14:53:25.192Z,0.98
2022-10-24T14:55:55.549Z,1.27
2022-10-24T14:59:35.401Z,0.93
2022-10-24T15:02:28.731Z,1.50
2022-10-24T15:05:23.487Z,1.10
2022-10-24T15:08:28.697Z,1.38
2022-10-24T15:11:24.603Z,1.60
2022-10-24T15:14:06.242Z,3.03
2022-10-24T15:16:39.782Z,8.32
2022-10-24T15:19:17.949Z,4.35
2022-10-24T15:21:48.878Z,2.45
2022-10-24T15:24:25.894Z,1.90
2022-10-24T15:27:09.765Z,1.95
2022-10-24T15:29:39.725Z,9.32
2022-10-24T15:32:12.364Z,3.75
2022-10-24T15:34:40.954Z,2.15
2022-10-24T15:37:22.898Z,1.95
2022-10-24T15:39:50.232Z,3.08
2022-10-24T15:42:18.817Z,2.38
2022-10-24T15:44:49.208Z,5.57
2022-10-24T15:47:16.039Z,3.67
2022-10-24T15:49:42.865Z,2.88
2022-10-24T15:52:16.581Z,2.90
2022-10-24T15:54:43.988Z,2.00
2022-10-24T15:57:13.288Z,1.60
2022-10-24T15:59:40.269Z,1.52
2022-10-24T16:02:24.381Z,3.35
2022-10-24T16:04:51.472Z,4.25
2022-10-24T16:07:20.650Z,4.85
2022-10-24T16:09:47.478Z,3.70
2022-10-24T16:12:14.354Z,2.65
2022-10-24T16:14:41.314Z,2.50
2022-10-24T16:17:08.186Z,2.30
2022-10-24T16:19:35.067Z,2.03
2022-10-24T16:22:02.818Z,1.80
2022-10-24T16:24:32.269Z,2.05
2022-10-24T16:26:59.213Z,1.80
2022-10-24T16:29:33.474Z,1.77
2022-10-24T16:32:00.404Z,1.48
2022-10-24T16:34:31.803Z,1.80
2022-10-24T16:37:01.353Z,1.38
2022-10-24T16:39:28.322Z,2.80
2022-10-24T16:42:05.227Z,2.97
2022-10-24T16:44:33.969Z,2.97
2022-10-24T16:47:00.923Z,2.30
2022-10-24T16:49:28.350Z,2.95
2022-10-24T16:51:55.184Z,2.80
2022-10-24T16:54:22.894Z,2.50
2022-10-24T16:56:53.868Z,1.52
2022-10-24T16:59:21.044Z,1.33
2022-10-24T17:01:48.047Z,1.70
2022-10-24T17:04:15.113Z,1.50
2022-10-24T17:06:44.475Z,1.35
2022-10-24T17:09:13.806Z,1.40
2022-10-24T17:11:45.222Z,1.52
2022-10-24T17:14:15.259Z,1.50
2022-10-24T17:16:43.554Z,1.48
2022-10-24T17:19:18.045Z,1.23
2022-10-24T17:21:50.395Z,2.20
2022-10-24T17:24:22.088Z,2.03
2022-10-24T17:26:49.928Z,1.52
2022-10-24T17:29:27.614Z,1.75
2022-10-24T17:31:59.955Z,1.80
2022-10-24T17:34:31.913Z,1.50
2022-10-24T17:37:17.274Z,1.63
2022-10-24T17:40:03.543Z,1.60
2022-10-24T17:42:35.098Z,2.10
2022-10-24T17:47:33.898Z,1.80
2022-10-24T17:50:03.809Z,1.38
2022-10-24T17:52:30.651Z,1.88
2022-10-24T17:54:59.985Z,2.20
2022-10-24T17:57:28.206Z,3.17
2022-10-24T17:59:57.455Z,6.78
2022-10-24T18:02:28.683Z,4.10
2022-10-24T18:04:59.468Z,2.00
2022-10-24T18:07:26.333Z,4.55
2022-10-24T18:10:00.251Z,2.90
2022-10-24T18:12:27.174Z,1.77
2022-10-24T18:14:54.111Z,1.40
2022-10-24T18:17:20.953Z,1.70
2022-10-24T18:19:50.970Z,1.40
2022-10-24T18:22:17.811Z,1.30
2022-10-24T18:24:47.322Z,1.58
2022-10-24T18:27:14.205Z,1.40
2022-10-24T18:32:14.597Z,1.90
2022-10-24T18:34:41.865Z,2.08
2022-10-24T18:37:10.317Z,1.80
2022-10-24T18:39:37.201Z,1.70
2022-10-24T18:42:25.031Z,1.70
2022-10-24T18:44:53.220Z,1.75
2022-10-24T18:47:24.685Z,1.90
2022-10-24T18:49:58.650Z,1.77
2022-10-24T18:52:46.322Z,1.60
2022-10-24T18:55:27.805Z,1.52
2022-10-24T18:57:55.318Z,1.80
2022-10-24T19:00:25.751Z,1.83
2022-10-24T19:03:18.370Z,1.40
2022-10-24T19:05:58.145Z,1.60
2022-10-24T19:08:30.355Z,1.60
2022-10-24T19:11:00.165Z,1.50
2022-10-24T19:13:29.947Z,1.30
2022-10-24T19:16:06.037Z,1.35
2022-10-24T19:18:36.153Z,1.50
2022-10-24T19:21:06.999Z,1.50
2022-10-24T19:23:36.047Z,1.80
2022-10-24T19:26:02.886Z,1.60
2022-10-24T19:28:32.309Z,1.73
2022-10-24T19:31:08.943Z,1.55
2022-10-24T19:33:35.937Z,2.20
2022-10-24T19:36:05.396Z,1.92
2022-10-24T19:38:32.472Z,2.15
2022-10-24T19:40:59.749Z,2.03
2022-10-24T19:43:32.300Z,2.10
2022-10-24T19:46:18.732Z,2.00
2022-10-24T19:48:49.159Z,1.90
2022-10-24T19:51:18.135Z,2.03
2022-10-24T19:53:46.448Z,2.15
2022-10-24T19:56:22.680Z,1.85
2022-10-24T19:58:52.013Z,1.80
2022-10-24T20:01:23.108Z,2.22
2022-10-24T20:03:50.939Z,2.28
2022-10-24T20:06:19.425Z,2.05
2022-10-24T20:08:49.947Z,2.28
2022-10-24T20:11:20.424Z,2.40
2022-10-24T20:13:50.231Z,2.05
2022-10-24T20:16:17.645Z,2.42
2022-10-24T20:18:44.837Z,2.22
2022-10-24T20:21:18.235Z,2.30
2022-10-24T20:23:47.699Z,2.00
2022-10-24T20:26:22.897Z,1.90
2022-10-24T20:28:55.769Z,1.42
2022-10-24T20:31:24.314Z,1.80
2022-10-24T20:33:51.885Z,1.63
2022-10-24T20:36:21.214Z,1.63
2022-10-24T20:38:48.091Z,1.70
2022-10-24T20:41:15.100Z,1.75
2022-10-24T20:43:44.364Z,1.48
2022-10-24T20:46:11.815Z,1.33
2022-10-24T20:48:38.852Z,1.23
2022-10-24T20:51:15.974Z,2.45
2022-10-24T20:53:46.459Z,1.92
2022-10-24T20:56:17.117Z,2.50
2022-10-24T20:58:45.611Z,2.63
2022-10-24T21:01:19.605Z,2.67
2022-10-24T21:03:47.362Z,2.72
2022-10-24T21:06:24.155Z,2.22
2022-10-24T21:08:54.211Z,2.60
2022-10-24T21:11:26.065Z,3.03
2022-10-24T21:13:56.045Z,3.28
2022-10-24T21:16:24.532Z,2.90
2022-10-24T21:18:51.962Z,2.60
2022-10-24T21:21:22.105Z,2.42
2022-10-24T21:24:02.243Z,2.60
2022-10-24T21:26:38.226Z,2.05
2022-10-24T21:29:27.889Z,2.75
2022-10-24T21:31:53.169Z,3.33
2022-10-24T21:34:21.384Z,3.38
2022-10-24T21:36:48.605Z,3.38
2022-10-24T21:39:17.251Z,2.67
2022-10-24T21:41:46.816Z,3.03
2022-10-24T21:44:14.520Z,2.80
2022-10-24T21:46:41.675Z,2.80
2022-10-24T21:49:09.248Z,3.17
2022-10-24T21:51:39.183Z,3.75
2022-10-24T21:54:15.486Z,3.30
2022-10-24T21:56:44.879Z,3.28
2022-10-24T21:59:16.035Z,3.03
2022-10-24T22:01:46.141Z,3.17
2022-10-24T22:04:14.358Z,2.60
2022-10-24T22:06:41.729Z,2.65
2022-10-24T22:09:12.699Z,3.03
2022-10-24T22:11:40.304Z,2.67
2022-10-24T22:14:07.190Z,2.63
2022-10-24T22:16:34.463Z,2.70
2022-10-24T22:19:05.438Z,2.38
2022-10-24T22:21:40.774Z,2.30
2022-10-24T22:24:15.298Z,2.40
2022-10-24T22:26:44.894Z,1.98
2022-10-24T22:29:15.505Z,2.13
2022-10-24T22:31:50.937Z,2.60
2022-10-24T22:34:24.464Z,2.15
2022-10-24T22:37:25.117Z,2.38
2022-10-24T22:39:54.600Z,4.50
2022-10-24T22:42:21.882Z,3.50
2022-10-24T22:44:50.901Z,2.90
2022-10-24T22:48:04.509Z,2.10
2022-10-24T22:50:51.464Z,2.35
2022-10-24T22:53:24.713Z,2.15
2022-10-24T22:55:54.682Z,2.00
2022-10-24T22:58:24.623Z,2.15
2022-10-24T23:01:00.589Z,2.15
2022-10-24T23:03:33.335Z,1.98
2022-10-24T23:06:09.836Z,2.03
2022-10-24T23:08:43.913Z,2.00
2022-10-24T23:11:13.540Z,1.98
2022-10-24T23:13:44.480Z,2.40
2022-10-24T23:16:50.008Z,4.68
2022-10-24T23:19:20.316Z,2.58
2022-10-24T23:21:59.482Z,2.10
2022-10-24T23:24:29.176Z,2.20
2022-10-24T23:27:18.782Z,2.25
2022-10-24T23:29:47.453Z,2.17
2022-10-24T23:32:24.677Z,2.40
2022-10-24T23:34:58.094Z,2.53
2022-10-24T23:37:52.450Z,2.47
2022-10-24T23:40:34.248Z,2.97
2022-10-24T23:43:02.076Z,2.72
2022-10-24T23:45:41.987Z,3.63
2022-10-24T23:48:43.510Z,2.90
2022-10-24T23:51:30.893Z,3.00
2022-10-24T23:53:58.310Z,3.33
2022-10-24T23:56:28.632Z,2.92
2022-10-24T23:58:56.102Z,4.55
